sensor_id;sensor_type;location;lat;lon;timestamp;temperature;humidity
5675;DHT22;2860;54.284;10.158;2022-11-20T00:01:07;0.80;99.90
5675;DHT22;2860;54.284;10.158;2022-11-20T00:03:33;0.70;99.90
5675;DHT22;2860;54.284;10.158;2022-11-20T00:06:03;0.80;99.90
5675;DHT22;2860;54.284;10.158;2022-11-20T00:08:28;0.80;99.90
5675;DHT22;2860;54.284;10.158;2022-11-20T00:10:54;0.70;99.90
5675;DHT22;2860;54.284;10.158;2022-11-20T00:13:20;0.70;99.90
5675;DHT22;2860;54.284;10.158;2022-11-20T00:15:45;0.70;99.90
5675;DHT22;2860;54.284;10.158;2022-11-20T00:18:11;0.70;99.90
5675;DHT22;2860;54.284;10.158;2022-11-20T00:20:36;0.70;99.90
5675;DHT22;2860;54.284;10.158;2022-11-20T00:23:01;0.70;99.90
5675;DHT22;2860;54.284;10.158;2022-11-20T00:25:27;0.70;99.90
5675;DHT22;2860;54.284;10.158;2022-11-20T00:27:52;0.70;99.90
5675;DHT22;2860;54.284;10.158;2022-11-20T00:30:18;0.70;99.90
5675;DHT22;2860;54.284;10.158;2022-11-20T00:32:44;0.70;99.90
5675;DHT22;2860;54.284;10.158;2022-11-20T00:35:09;0.70;99.90
5675;DHT22;2860;54.284;10.158;2022-11-20T00:37:35;0.70;99.90
5675;DHT22;2860;54.284;10.158;2022-11-20T00:40:00;0.70;99.90
5675;DHT22;2860;54.284;10.158;2022-11-20T00:42:26;0.70;99.90
5675;DHT22;2860;54.284;10.158;2022-11-20T00:44:51;0.80;99.90
5675;DHT22;2860;54.284;10.158;2022-11-20T00:47:17;0.80;99.90
5675;DHT22;2860;54.284;10.158;2022-11-20T00:49:42;0.80;99.90
5675;DHT22;2860;54.284;10.158;2022-11-20T00:52:08;0.80;99.90
5675;DHT22;2860;54.284;10.158;2022-11-20T00:54:34;0.80;99.90
5675;DHT22;2860;54.284;10.158;2022-11-20T00:56:59;0.80;99.90
5675;DHT22;2860;54.284;10.158;2022-11-20T00:59:25;0.80;99.90
5675;DHT22;2860;54.284;10.158;2022-11-20T01:01:50;0.80;99.90
5675;DHT22;2860;54.284;10.158;2022-11-20T01:04:16;0.80;99.90
5675;DHT22;2860;54.284;10.158;2022-11-20T01:06:41;0.80;99.90
5675;DHT22;2860;54.284;10.158;2022-11-20T01:09:12;0.80;99.90
5675;DHT22;2860;54.284;10.158;2022-11-20T01:11:40;0.80;99.90
5675;DHT22;2860;54.284;10.158;2022-11-20T01:14:10;0.80;99.90
5675;DHT22;2860;54.284;10.158;2022-11-20T01:16:40;0.80;99.90
5675;DHT22;2860;54.284;10.158;2022-11-20T01:19:09;0.70;99.90
5675;DHT22;2860;54.284;10.158;2022-11-20T01:21:37;0.70;99.90
5675;DHT22;2860;54.284;10.158;2022-11-20T01:24:06;0.70;99.90
5675;DHT22;2860;54.284;10.158;2022-11-20T01:26:34;0.70;99.90
5675;DHT22;2860;54.284;10.158;2022-11-20T01:29:01;0.70;99.90
5675;DHT22;2860;54.284;10.158;2022-11-20T01:31:32;0.70;99.90
5675;DHT22;2860;54.284;10.158;2022-11-20T01:34:00;0.70;99.90
5675;DHT22;2860;54.284;10.158;2022-11-20T01:36:28;0.70;99.90
5675;DHT22;2860;54.284;10.158;2022-11-20T01:38:55;0.70;99.90
5675;DHT22;2860;54.284;10.158;2022-11-20T01:41:22;0.70;99.90
5675;DHT22;2860;54.284;10.158;2022-11-20T01:44:06;0.70;99.90
5675;DHT22;2860;54.284;10.158;2022-11-20T01:46:33;0.60;99.90
5675;DHT22;2860;54.284;10.158;2022-11-20T01:49:11;0.70;99.90
5675;DHT22;2860;54.284;10.158;2022-11-20T01:51:44;0.70;99.90
5675;DHT22;2860;54.284;10.158;2022-11-20T01:54:15;0.60;99.90
5675;DHT22;2860;54.284;10.158;2022-11-20T01:56:43;0.60;99.90
5675;DHT22;2860;54.284;10.158;2022-11-20T01:59:10;0.60;99.90
5675;DHT22;2860;54.284;10.158;2022-11-20T02:01:37;0.60;99.90
5675;DHT22;2860;54.284;10.158;2022-11-20T02:04:04;0.60;99.90
5675;DHT22;2860;54.284;10.158;2022-11-20T02:06:36;0.70;99.90
5675;DHT22;2860;54.284;10.158;2022-11-20T02:09:03;0.60;99.90
5675;DHT22;2860;54.284;10.158;2022-11-20T02:11:30;0.60;99.90
5675;DHT22;2860;54.284;10.158;2022-11-20T02:13:56;0.70;99.90
5675;DHT22;2860;54.284;10.158;2022-11-20T02:16:25;0.60;99.90
5675;DHT22;2860;54.284;10.158;2022-11-20T02:18:52;0.70;99.90
5675;DHT22;2860;54.284;10.158;2022-11-20T02:24:03;0.70;99.90
5675;DHT22;2860;54.284;10.158;2022-11-20T02:26:31;0.70;99.90
5675;DHT22;2860;54.284;10.158;2022-11-20T02:28:59;0.70;99.90
5675;DHT22;2860;54.284;10.158;2022-11-20T02:31:25;0.70;99.90
5675;DHT22;2860;54.284;10.158;2022-11-20T02:33:56;0.70;99.90
5675;DHT22;2860;54.284;10.158;2022-11-20T02:36:21;0.70;99.90
5675;DHT22;2860;54.284;10.158;2022-11-20T02:38:49;0.70;99.90
5675;DHT22;2860;54.284;10.158;2022-11-20T02:41:14;0.70;99.90
5675;DHT22;2860;54.284;10.158;2022-11-20T02:43:40;0.80;99.90
5675;DHT22;2860;54.284;10.158;2022-11-20T02:46:07;0.80;99.90
5675;DHT22;2860;54.284;10.158;2022-11-20T02:48:32;0.80;99.90
5675;DHT22;2860;54.284;10.158;2022-11-20T02:50:58;0.80;99.90
5675;DHT22;2860;54.284;10.158;2022-11-20T02:53:23;0.80;99.90
5675;DHT22;2860;54.284;10.158;2022-11-20T02:55:49;0.80;99.90
5675;DHT22;2860;54.284;10.158;2022-11-20T02:58:14;0.80;99.90
5675;DHT22;2860;54.284;10.158;2022-11-20T03:00:40;0.80;99.90
5675;DHT22;2860;54.284;10.158;2022-11-20T03:03:05;0.80;99.90
5675;DHT22;2860;54.284;10.158;2022-11-20T03:05:31;0.80;99.90
5675;DHT22;2860;54.284;10.158;2022-11-20T03:07:56;0.90;99.90
5675;DHT22;2860;54.284;10.158;2022-11-20T03:10:22;0.80;99.90
5675;DHT22;2860;54.284;10.158;2022-11-20T03:12:47;0.80;99.90
5675;DHT22;2860;54.284;10.158;2022-11-20T03:15:17;0.80;99.90
5675;DHT22;2860;54.284;10.158;2022-11-20T03:17:43;0.80;99.90
5675;DHT22;2860;54.284;10.158;2022-11-20T03:20:08;0.80;99.90
5675;DHT22;2860;54.284;10.158;2022-11-20T03:22:34;0.80;99.90
5675;DHT22;2860;54.284;10.158;2022-11-20T03:25:00;0.80;99.90
5675;DHT22;2860;54.284;10.158;2022-11-20T03:27:25;0.80;99.90
5675;DHT22;2860;54.284;10.158;2022-11-20T03:29:51;0.80;99.90
5675;DHT22;2860;54.284;10.158;2022-11-20T03:32:16;0.80;99.90
5675;DHT22;2860;54.284;10.158;2022-11-20T03:34:42;0.80;99.90
5675;DHT22;2860;54.284;10.158;2022-11-20T03:37:07;0.80;99.90
5675;DHT22;2860;54.284;10.158;2022-11-20T03:39:32;0.80;99.90
5675;DHT22;2860;54.284;10.158;2022-11-20T03:41:58;0.80;99.90
5675;DHT22;2860;54.284;10.158;2022-11-20T03:44:23;0.80;99.90
5675;DHT22;2860;54.284;10.158;2022-11-20T03:46:49;0.80;99.90
5675;DHT22;2860;54.284;10.158;2022-11-20T03:49:15;0.80;99.90
5675;DHT22;2860;54.284;10.158;2022-11-20T03:51:40;0.70;99.90
5675;DHT22;2860;54.284;10.158;2022-11-20T03:54:07;0.80;99.90
5675;DHT22;2860;54.284;10.158;2022-11-20T03:56:36;0.70;99.90
5675;DHT22;2860;54.284;10.158;2022-11-20T03:59:03;0.70;99.90
5675;DHT22;2860;54.284;10.158;2022-11-20T04:01:33;0.80;99.90
5675;DHT22;2860;54.284;10.158;2022-11-20T04:03:59;0.80;99.90
5675;DHT22;2860;54.284;10.158;2022-11-20T04:06:30;0.80;99.90
5675;DHT22;2860;54.284;10.158;2022-11-20T04:08:57;0.80;99.90
5675;DHT22;2860;54.284;10.158;2022-11-20T04:11:24;0.80;99.90
5675;DHT22;2860;54.284;10.158;2022-11-20T04:13:55;0.80;99.90
5675;DHT22;2860;54.284;10.158;2022-11-20T04:16:22;0.70;99.90
5675;DHT22;2860;54.284;10.158;2022-11-20T04:18:54;0.70;99.90
5675;DHT22;2860;54.284;10.158;2022-11-20T04:21:20;0.70;99.90
5675;DHT22;2860;54.284;10.158;2022-11-20T04:23:46;0.70;99.90
5675;DHT22;2860;54.284;10.158;2022-11-20T04:26:12;0.70;99.90
5675;DHT22;2860;54.284;10.158;2022-11-20T04:28:38;0.70;99.90
5675;DHT22;2860;54.284;10.158;2022-11-20T04:31:12;0.70;99.90
5675;DHT22;2860;54.284;10.158;2022-11-20T04:33:38;0.70;99.90
5675;DHT22;2860;54.284;10.158;2022-11-20T04:36:15;0.70;99.90
5675;DHT22;2860;54.284;10.158;2022-11-20T04:38:42;0.70;99.90
5675;DHT22;2860;54.284;10.158;2022-11-20T04:41:17;0.70;99.90
5675;DHT22;2860;54.284;10.158;2022-11-20T04:43:46;0.70;99.90
5675;DHT22;2860;54.284;10.158;2022-11-20T04:46:14;0.70;99.90
5675;DHT22;2860;54.284;10.158;2022-11-20T04:48:39;0.70;99.90
5675;DHT22;2860;54.284;10.158;2022-11-20T04:51:05;0.70;99.90
5675;DHT22;2860;54.284;10.158;2022-11-20T04:53:31;0.60;99.90
5675;DHT22;2860;54.284;10.158;2022-11-20T04:56:08;0.70;99.90
5675;DHT22;2860;54.284;10.158;2022-11-20T04:58:34;0.70;99.90
5675;DHT22;2860;54.284;10.158;2022-11-20T05:01:17;0.60;99.90
5675;DHT22;2860;54.284;10.158;2022-11-20T05:03:43;0.60;99.90
5675;DHT22;2860;54.284;10.158;2022-11-20T05:06:12;0.70;99.90
5675;DHT22;2860;54.284;10.158;2022-11-20T05:08:38;0.70;99.90
5675;DHT22;2860;54.284;10.158;2022-11-20T05:11:08;0.70;99.90
5675;DHT22;2860;54.284;10.158;2022-11-20T05:13:34;0.70;99.90
5675;DHT22;2860;54.284;10.158;2022-11-20T05:16:04;0.70;99.90
5675;DHT22;2860;54.284;10.158;2022-11-20T05:18:30;0.70;99.90
5675;DHT22;2860;54.284;10.158;2022-11-20T05:20:58;0.70;99.90
5675;DHT22;2860;54.284;10.158;2022-11-20T05:23:24;0.70;99.90
5675;DHT22;2860;54.284;10.158;2022-11-20T05:25:55;0.70;99.90
5675;DHT22;2860;54.284;10.158;2022-11-20T05:28:21;0.70;99.90
5675;DHT22;2860;54.284;10.158;2022-11-20T05:30:47;0.70;99.90
5675;DHT22;2860;54.284;10.158;2022-11-20T05:33:12;0.70;99.90
5675;DHT22;2860;54.284;10.158;2022-11-20T05:35:38;0.70;99.90
5675;DHT22;2860;54.284;10.158;2022-11-20T05:38:03;0.70;99.90
5675;DHT22;2860;54.284;10.158;2022-11-20T05:40:29;0.70;99.90
5675;DHT22;2860;54.284;10.158;2022-11-20T05:42:54;0.70;99.90
5675;DHT22;2860;54.284;10.158;2022-11-20T05:45:20;0.60;99.90
5675;DHT22;2860;54.284;10.158;2022-11-20T05:47:45;0.70;99.90
5675;DHT22;2860;54.284;10.158;2022-11-20T05:50:11;0.60;99.90
5675;DHT22;2860;54.284;10.158;2022-11-20T05:52:36;0.60;99.90
5675;DHT22;2860;54.284;10.158;2022-11-20T05:55:02;0.60;99.90
5675;DHT22;2860;54.284;10.158;2022-11-20T05:57:27;0.60;99.90
5675;DHT22;2860;54.284;10.158;2022-11-20T05:59:53;0.60;99.90
5675;DHT22;2860;54.284;10.158;2022-11-20T06:02:18;0.70;99.90
5675;DHT22;2860;54.284;10.158;2022-11-20T06:04:44;0.70;99.90
5675;DHT22;2860;54.284;10.158;2022-11-20T06:07:09;0.70;99.90
5675;DHT22;2860;54.284;10.158;2022-11-20T06:09:35;0.60;99.90
5675;DHT22;2860;54.284;10.158;2022-11-20T06:12:01;0.60;99.90
5675;DHT22;2860;54.284;10.158;2022-11-20T06:14:26;0.70;99.90
5675;DHT22;2860;54.284;10.158;2022-11-20T06:16:52;0.70;99.90
5675;DHT22;2860;54.284;10.158;2022-11-20T06:19:17;0.60;99.90
5675;DHT22;2860;54.284;10.158;2022-11-20T06:21:43;0.60;99.90
5675;DHT22;2860;54.284;10.158;2022-11-20T06:24:11;0.60;99.90
5675;DHT22;2860;54.284;10.158;2022-11-20T06:26:37;0.50;99.90
5675;DHT22;2860;54.284;10.158;2022-11-20T06:29:02;0.50;99.90
5675;DHT22;2860;54.284;10.158;2022-11-20T06:31:28;0.50;99.90
5675;DHT22;2860;54.284;10.158;2022-11-20T06:33:54;0.50;99.90
5675;DHT22;2860;54.284;10.158;2022-11-20T06:36:21;0.40;99.90
5675;DHT22;2860;54.284;10.158;2022-11-20T06:38:48;0.40;99.90
5675;DHT22;2860;54.284;10.158;2022-11-20T06:41:16;0.30;99.90
5675;DHT22;2860;54.284;10.158;2022-11-20T06:43:42;0.30;99.90
5675;DHT22;2860;54.284;10.158;2022-11-20T06:46:09;0.30;99.90
5675;DHT22;2860;54.284;10.158;2022-11-20T06:48:35;0.30;99.90
5675;DHT22;2860;54.284;10.158;2022-11-20T06:51:03;0.40;99.90
5675;DHT22;2860;54.284;10.158;2022-11-20T06:53:29;0.30;99.90
5675;DHT22;2860;54.284;10.158;2022-11-20T06:55:56;0.30;99.90
5675;DHT22;2860;54.284;10.158;2022-11-20T06:58:21;0.30;99.90
5675;DHT22;2860;54.284;10.158;2022-11-20T07:00:47;0.40;99.90
5675;DHT22;2860;54.284;10.158;2022-11-20T07:03:13;0.40;99.90
5675;DHT22;2860;54.284;10.158;2022-11-20T07:05:38;0.40;99.90
5675;DHT22;2860;54.284;10.158;2022-11-20T07:08:05;0.50;99.90
5675;DHT22;2860;54.284;10.158;2022-11-20T07:10:31;0.50;99.90
5675;DHT22;2860;54.284;10.158;2022-11-20T07:12:57;0.60;99.90
5675;DHT22;2860;54.284;10.158;2022-11-20T07:15:24;0.50;99.90
5675;DHT22;2860;54.284;10.158;2022-11-20T07:17:50;0.50;99.90
5675;DHT22;2860;54.284;10.158;2022-11-20T07:20:16;0.50;99.90
5675;DHT22;2860;54.284;10.158;2022-11-20T07:22:42;0.60;99.90
5675;DHT22;2860;54.284;10.158;2022-11-20T07:25:08;0.60;99.90
5675;DHT22;2860;54.284;10.158;2022-11-20T07:27:34;0.60;99.90
5675;DHT22;2860;54.284;10.158;2022-11-20T07:29:59;0.60;99.90
5675;DHT22;2860;54.284;10.158;2022-11-20T07:32:25;0.60;99.90
5675;DHT22;2860;54.284;10.158;2022-11-20T07:34:51;0.70;99.90
5675;DHT22;2860;54.284;10.158;2022-11-20T07:37:16;0.70;99.90
5675;DHT22;2860;54.284;10.158;2022-11-20T07:39:42;0.70;99.90
5675;DHT22;2860;54.284;10.158;2022-11-20T07:42:08;0.70;99.90
5675;DHT22;2860;54.284;10.158;2022-11-20T07:44:34;0.80;99.90
5675;DHT22;2860;54.284;10.158;2022-11-20T07:47:00;0.80;99.90
5675;DHT22;2860;54.284;10.158;2022-11-20T07:49:25;0.80;99.90
5675;DHT22;2860;54.284;10.158;2022-11-20T07:51:51;0.90;99.90
5675;DHT22;2860;54.284;10.158;2022-11-20T07:54:19;1.00;99.90
5675;DHT22;2860;54.284;10.158;2022-11-20T07:56:44;1.00;99.90
5675;DHT22;2860;54.284;10.158;2022-11-20T07:59:10;1.00;99.90
5675;DHT22;2860;54.284;10.158;2022-11-20T08:01:37;1.00;99.90
5675;DHT22;2860;54.284;10.158;2022-11-20T08:04:03;1.00;99.90
5675;DHT22;2860;54.284;10.158;2022-11-20T08:06:28;1.00;99.90
5675;DHT22;2860;54.284;10.158;2022-11-20T08:08:54;1.10;99.90
5675;DHT22;2860;54.284;10.158;2022-11-20T08:11:20;1.10;99.90
5675;DHT22;2860;54.284;10.158;2022-11-20T08:14:04;1.10;99.90
5675;DHT22;2860;54.284;10.158;2022-11-20T08:16:45;1.00;99.90
5675;DHT22;2860;54.284;10.158;2022-11-20T08:19:12;1.00;99.90
5675;DHT22;2860;54.284;10.158;2022-11-20T08:21:38;1.00;99.90
5675;DHT22;2860;54.284;10.158;2022-11-20T08:24:05;0.90;99.90
5675;DHT22;2860;54.284;10.158;2022-11-20T08:26:30;0.90;99.90
5675;DHT22;2860;54.284;10.158;2022-11-20T08:28:57;0.90;99.90
5675;DHT22;2860;54.284;10.158;2022-11-20T08:31:24;0.90;99.90
5675;DHT22;2860;54.284;10.158;2022-11-20T08:33:49;0.90;99.90
5675;DHT22;2860;54.284;10.158;2022-11-20T08:36:15;0.80;99.90
5675;DHT22;2860;54.284;10.158;2022-11-20T08:38:40;0.70;99.90
5675;DHT22;2860;54.284;10.158;2022-11-20T08:41:06;0.70;99.90
5675;DHT22;2860;54.284;10.158;2022-11-20T08:43:54;0.80;99.90
5675;DHT22;2860;54.284;10.158;2022-11-20T08:46:20;0.90;99.90
5675;DHT22;2860;54.284;10.158;2022-11-20T08:48:45;1.10;99.90
5675;DHT22;2860;54.284;10.158;2022-11-20T08:51:11;1.40;99.90
5675;DHT22;2860;54.284;10.158;2022-11-20T08:53:38;1.60;99.90
5675;DHT22;2860;54.284;10.158;2022-11-20T08:56:04;1.80;99.90
5675;DHT22;2860;54.284;10.158;2022-11-20T08:58:29;1.80;99.90
5675;DHT22;2860;54.284;10.158;2022-11-20T09:00:55;1.90;99.90
5675;DHT22;2860;54.284;10.158;2022-11-20T09:03:20;2.00;99.90
5675;DHT22;2860;54.284;10.158;2022-11-20T09:05:46;2.10;99.90
5675;DHT22;2860;54.284;10.158;2022-11-20T09:08:11;2.20;99.90
5675;DHT22;2860;54.284;10.158;2022-11-20T09:10:37;2.30;99.90
5675;DHT22;2860;54.284;10.158;2022-11-20T09:13:05;2.40;99.90
5675;DHT22;2860;54.284;10.158;2022-11-20T09:15:31;2.40;99.90
5675;DHT22;2860;54.284;10.158;2022-11-20T09:18:01;2.40;99.90
5675;DHT22;2860;54.284;10.158;2022-11-20T09:20:28;2.30;99.90
5675;DHT22;2860;54.284;10.158;2022-11-20T09:22:54;2.10;99.90
5675;DHT22;2860;54.284;10.158;2022-11-20T09:25:20;2.00;99.90
5675;DHT22;2860;54.284;10.158;2022-11-20T09:27:45;1.90;99.90
5675;DHT22;2860;54.284;10.158;2022-11-20T09:30:15;1.90;99.90
5675;DHT22;2860;54.284;10.158;2022-11-20T09:32:42;1.90;99.90
5675;DHT22;2860;54.284;10.158;2022-11-20T09:35:08;2.00;99.90
5675;DHT22;2860;54.284;10.158;2022-11-20T09:37:34;2.20;99.90
5675;DHT22;2860;54.284;10.158;2022-11-20T09:40:00;2.40;99.90
5675;DHT22;2860;54.284;10.158;2022-11-20T09:42:45;2.60;99.90
5675;DHT22;2860;54.284;10.158;2022-11-20T09:48:32;2.70;99.90
5675;DHT22;2860;54.284;10.158;2022-11-20T09:56:30;2.60;99.90
5675;DHT22;2860;54.284;10.158;2022-11-20T09:58:59;2.60;99.90
5675;DHT22;2860;54.284;10.158;2022-11-20T10:01:32;2.70;99.90
5675;DHT22;2860;54.284;10.158;2022-11-20T10:04:17;2.70;99.90
5675;DHT22;2860;54.284;10.158;2022-11-20T10:07:06;2.90;99.90
5675;DHT22;2860;54.284;10.158;2022-11-20T10:09:39;3.00;99.90
5675;DHT22;2860;54.284;10.158;2022-11-20T10:18:23;3.60;99.90
5675;DHT22;2860;54.284;10.158;2022-11-20T10:21:03;3.90;99.90
5675;DHT22;2860;54.284;10.158;2022-11-20T10:26:50;4.10;99.90
5675;DHT22;2860;54.284;10.158;2022-11-20T10:29:23;3.90;99.90
5675;DHT22;2860;54.284;10.158;2022-11-20T10:32:03;3.60;99.90
5675;DHT22;2860;54.284;10.158;2022-11-20T10:34:42;3.40;99.90
5675;DHT22;2860;54.284;10.158;2022-11-20T10:37:16;3.20;99.90
5675;DHT22;2860;54.284;10.158;2022-11-20T10:40:22;3.20;99.90
5675;DHT22;2860;54.284;10.158;2022-11-20T10:50:25;2.90;99.90
5675;DHT22;2860;54.284;10.158;2022-11-20T10:52:56;2.90;99.90
5675;DHT22;2860;54.284;10.158;2022-11-20T10:55:43;2.90;99.90
5675;DHT22;2860;54.284;10.158;2022-11-20T10:58:19;2.90;99.90
5675;DHT22;2860;54.284;10.158;2022-11-20T11:00:47;2.90;99.90
5675;DHT22;2860;54.284;10.158;2022-11-20T11:03:26;2.90;99.90
5675;DHT22;2860;54.284;10.158;2022-11-20T11:06:06;3.00;99.90
5675;DHT22;2860;54.284;10.158;2022-11-20T11:08:36;3.00;99.90
5675;DHT22;2860;54.284;10.158;2022-11-20T11:11:32;3.10;99.90
5675;DHT22;2860;54.284;10.158;2022-11-20T11:14:05;3.10;99.90
5675;DHT22;2860;54.284;10.158;2022-11-20T11:16:31;3.20;99.90
5675;DHT22;2860;54.284;10.158;2022-11-20T11:19:13;3.20;99.90
5675;DHT22;2860;54.284;10.158;2022-11-20T11:21:38;3.20;99.90
5675;DHT22;2860;54.284;10.158;2022-11-20T11:24:20;3.20;99.90
5675;DHT22;2860;54.284;10.158;2022-11-20T11:29:21;3.10;99.90
5675;DHT22;2860;54.284;10.158;2022-11-20T11:31:46;3.10;99.90
5675;DHT22;2860;54.284;10.158;2022-11-20T11:34:14;3.10;99.90
5675;DHT22;2860;54.284;10.158;2022-11-20T11:36:40;3.10;99.90
5675;DHT22;2860;54.284;10.158;2022-11-20T11:39:12;3.10;99.90
5675;DHT22;2860;54.284;10.158;2022-11-20T11:41:40;3.10;99.90
5675;DHT22;2860;54.284;10.158;2022-11-20T11:44:20;3.20;99.90
5675;DHT22;2860;54.284;10.158;2022-11-20T11:47:25;3.30;99.90
5675;DHT22;2860;54.284;10.158;2022-11-20T11:50:22;3.50;99.90
5675;DHT22;2860;54.284;10.158;2022-11-20T11:58:34;3.40;99.90
5675;DHT22;2860;54.284;10.158;2022-11-20T12:01:34;3.30;99.90
5675;DHT22;2860;54.284;10.158;2022-11-20T12:05:13;3.10;99.90
5675;DHT22;2860;54.284;10.158;2022-11-20T12:10:03;3.00;99.90
5675;DHT22;2860;54.284;10.158;2022-11-20T12:12:36;3.00;99.90
5675;DHT22;2860;54.284;10.158;2022-11-20T12:15:06;3.10;99.90
5675;DHT22;2860;54.284;10.158;2022-11-20T12:17:35;3.20;99.90
5675;DHT22;2860;54.284;10.158;2022-11-20T12:20:00;3.40;99.90
5675;DHT22;2860;54.284;10.158;2022-11-20T12:22:41;3.40;99.90
5675;DHT22;2860;54.284;10.158;2022-11-20T12:25:14;3.40;99.90
5675;DHT22;2860;54.284;10.158;2022-11-20T12:30:19;3.20;99.90
5675;DHT22;2860;54.284;10.158;2022-11-20T12:35:44;3.00;99.90
5675;DHT22;2860;54.284;10.158;2022-11-20T12:41:59;2.80;99.90
5675;DHT22;2860;54.284;10.158;2022-11-20T12:56:28;2.70;99.90
5675;DHT22;2860;54.284;10.158;2022-11-20T13:06:54;2.50;99.90
5675;DHT22;2860;54.284;10.158;2022-11-20T13:09:22;2.50;99.90
5675;DHT22;2860;54.284;10.158;2022-11-20T13:17:41;2.20;99.90
5675;DHT22;2860;54.284;10.158;2022-11-20T13:20:16;2.10;99.90
5675;DHT22;2860;54.284;10.158;2022-11-20T13:22:48;2.10;99.90
5675;DHT22;2860;54.284;10.158;2022-11-20T13:27:52;2.10;99.90
5675;DHT22;2860;54.284;10.158;2022-11-20T13:30:20;2.00;99.90
5675;DHT22;2860;54.284;10.158;2022-11-20T13:32:52;1.90;99.90
5675;DHT22;2860;54.284;10.158;2022-11-20T13:35:27;1.80;99.90
5675;DHT22;2860;54.284;10.158;2022-11-20T13:38:10;1.70;99.90
5675;DHT22;2860;54.284;10.158;2022-11-20T13:40:39;1.70;99.90
5675;DHT22;2860;54.284;10.158;2022-11-20T13:46:04;1.80;99.90
5675;DHT22;2860;54.284;10.158;2022-11-20T13:48:38;1.70;99.90
5675;DHT22;2860;54.284;10.158;2022-11-20T13:51:28;1.60;99.90
5675;DHT22;2860;54.284;10.158;2022-11-20T13:54:09;1.50;99.90
5675;DHT22;2860;54.284;10.158;2022-11-20T13:56:54;1.50;99.90
5675;DHT22;2860;54.284;10.158;2022-11-20T13:59:46;1.40;99.90
5675;DHT22;2860;54.284;10.158;2022-11-20T14:02:17;1.30;99.90
5675;DHT22;2860;54.284;10.158;2022-11-20T14:04:47;1.30;99.90
5675;DHT22;2860;54.284;10.158;2022-11-20T14:07:14;1.20;99.90
5675;DHT22;2860;54.284;10.158;2022-11-20T14:09:57;1.20;99.90
5675;DHT22;2860;54.284;10.158;2022-11-20T14:12:33;1.20;99.90
5675;DHT22;2860;54.284;10.158;2022-11-20T14:14:59;1.20;99.90
5675;DHT22;2860;54.284;10.158;2022-11-20T14:17:34;1.10;99.90
5675;DHT22;2860;54.284;10.158;2022-11-20T14:20:02;1.10;99.90
5675;DHT22;2860;54.284;10.158;2022-11-20T14:22:30;1.10;99.90
5675;DHT22;2860;54.284;10.158;2022-11-20T14:25:18;1.10;99.90
5675;DHT22;2860;54.284;10.158;2022-11-20T14:27:54;1.10;99.90
5675;DHT22;2860;54.284;10.158;2022-11-20T14:30:23;1.10;99.90
5675;DHT22;2860;54.284;10.158;2022-11-20T14:32:49;1.10;99.90
5675;DHT22;2860;54.284;10.158;2022-11-20T14:35:27;1.00;99.90
5675;DHT22;2860;54.284;10.158;2022-11-20T14:37:54;1.00;99.90
5675;DHT22;2860;54.284;10.158;2022-11-20T14:40:36;0.90;99.90
5675;DHT22;2860;54.284;10.158;2022-11-20T14:43:15;0.70;99.90
5675;DHT22;2860;54.284;10.158;2022-11-20T14:45:43;0.70;99.90
5675;DHT22;2860;54.284;10.158;2022-11-20T14:48:09;0.60;99.90
5675;DHT22;2860;54.284;10.158;2022-11-20T14:50:35;0.50;99.90
5675;DHT22;2860;54.284;10.158;2022-11-20T14:53:03;0.50;99.90
5675;DHT22;2860;54.284;10.158;2022-11-20T14:55:33;0.50;99.90
5675;DHT22;2860;54.284;10.158;2022-11-20T14:58:22;0.50;99.90
5675;DHT22;2860;54.284;10.158;2022-11-20T15:01:13;0.50;99.90
5675;DHT22;2860;54.284;10.158;2022-11-20T15:03:40;0.50;99.90
5675;DHT22;2860;54.284;10.158;2022-11-20T15:06:09;0.40;99.90
5675;DHT22;2860;54.284;10.158;2022-11-20T15:08:36;0.30;99.90
5675;DHT22;2860;54.284;10.158;2022-11-20T15:11:01;0.20;99.90
5675;DHT22;2860;54.284;10.158;2022-11-20T15:15:58;0.10;99.90
5675;DHT22;2860;54.284;10.158;2022-11-20T15:18:36;-0.10;99.90
5675;DHT22;2860;54.284;10.158;2022-11-20T15:21:08;-0.10;99.90
5675;DHT22;2860;54.284;10.158;2022-11-20T15:23:34;-0.20;99.90
5675;DHT22;2860;54.284;10.158;2022-11-20T15:26:00;-0.20;99.90
5675;DHT22;2860;54.284;10.158;2022-11-20T15:28:27;-0.30;99.90
5675;DHT22;2860;54.284;10.158;2022-11-20T15:30:55;-0.40;99.90
5675;DHT22;2860;54.284;10.158;2022-11-20T15:33:21;-0.40;99.90
5675;DHT22;2860;54.284;10.158;2022-11-20T15:35:47;-0.50;99.90
5675;DHT22;2860;54.284;10.158;2022-11-20T15:38:12;-0.50;99.90
5675;DHT22;2860;54.284;10.158;2022-11-20T15:40:38;-0.50;99.90
5675;DHT22;2860;54.284;10.158;2022-11-20T15:43:04;-0.60;99.90
5675;DHT22;2860;54.284;10.158;2022-11-20T15:48:16;-0.70;99.90
5675;DHT22;2860;54.284;10.158;2022-11-20T15:50:54;-0.70;99.90
5675;DHT22;2860;54.284;10.158;2022-11-20T15:53:22;-0.70;99.90
5675;DHT22;2860;54.284;10.158;2022-11-20T15:55:48;-0.80;99.90
5675;DHT22;2860;54.284;10.158;2022-11-20T15:58:13;-0.80;99.90
5675;DHT22;2860;54.284;10.158;2022-11-20T16:00:39;-0.80;99.90
5675;DHT22;2860;54.284;10.158;2022-11-20T16:03:04;-0.80;99.90
5675;DHT22;2860;54.284;10.158;2022-11-20T16:05:30;-0.80;99.90
5675;DHT22;2860;54.284;10.158;2022-11-20T16:07:56;-0.80;99.90
5675;DHT22;2860;54.284;10.158;2022-11-20T16:10:22;-0.80;99.90
5675;DHT22;2860;54.284;10.158;2022-11-20T16:12:48;-0.80;99.90
5675;DHT22;2860;54.284;10.158;2022-11-20T16:15:32;-0.80;99.90
5675;DHT22;2860;54.284;10.158;2022-11-20T16:18:11;-0.70;99.90
5675;DHT22;2860;54.284;10.158;2022-11-20T16:20:39;-0.70;99.90
5675;DHT22;2860;54.284;10.158;2022-11-20T16:23:05;-0.60;99.90
5675;DHT22;2860;54.284;10.158;2022-11-20T16:25:31;-0.70;99.90
5675;DHT22;2860;54.284;10.158;2022-11-20T16:27:56;-0.70;99.90
5675;DHT22;2860;54.284;10.158;2022-11-20T16:30:22;-0.70;99.90
5675;DHT22;2860;54.284;10.158;2022-11-20T16:32:48;-0.70;99.90
5675;DHT22;2860;54.284;10.158;2022-11-20T16:35:13;-0.70;99.90
5675;DHT22;2860;54.284;10.158;2022-11-20T16:37:39;-0.60;99.90
5675;DHT22;2860;54.284;10.158;2022-11-20T16:40:05;-0.60;99.90
5675;DHT22;2860;54.284;10.158;2022-11-20T16:42:34;-0.50;99.90
5675;DHT22;2860;54.284;10.158;2022-11-20T16:45:00;-0.40;99.90
5675;DHT22;2860;54.284;10.158;2022-11-20T16:47:26;-0.30;99.90
5675;DHT22;2860;54.284;10.158;2022-11-20T16:49:51;-0.30;99.90
5675;DHT22;2860;54.284;10.158;2022-11-20T16:52:17;-0.30;99.90
5675;DHT22;2860;54.284;10.158;2022-11-20T16:54:42;-0.20;99.90
5675;DHT22;2860;54.284;10.158;2022-11-20T16:57:08;-0.30;99.90
5675;DHT22;2860;54.284;10.158;2022-11-20T16:59:33;-0.20;99.90
5675;DHT22;2860;54.284;10.158;2022-11-20T17:01:59;-0.30;99.90
5675;DHT22;2860;54.284;10.158;2022-11-20T17:04:24;-0.30;99.90
5675;DHT22;2860;54.284;10.158;2022-11-20T17:06:50;-0.20;99.90
5675;DHT22;2860;54.284;10.158;2022-11-20T17:09:16;-0.20;99.90
5675;DHT22;2860;54.284;10.158;2022-11-20T17:11:41;-0.20;99.90
5675;DHT22;2860;54.284;10.158;2022-11-20T17:14:09;-0.10;99.90
5675;DHT22;2860;54.284;10.158;2022-11-20T17:16:36;-0.10;99.90
5675;DHT22;2860;54.284;10.158;2022-11-20T17:19:02;-0.10;99.90
5675;DHT22;2860;54.284;10.158;2022-11-20T17:21:30;-0.10;99.90
5675;DHT22;2860;54.284;10.158;2022-11-20T17:24:00;-0.10;99.90
5675;DHT22;2860;54.284;10.158;2022-11-20T17:26:26;-0.20;99.90
5675;DHT22;2860;54.284;10.158;2022-11-20T17:28:55;-0.20;99.90
5675;DHT22;2860;54.284;10.158;2022-11-20T17:31:22;-0.30;99.90
5675;DHT22;2860;54.284;10.158;2022-11-20T17:33:47;-0.30;99.90
5675;DHT22;2860;54.284;10.158;2022-11-20T17:36:15;-0.40;99.90